Terminal Aerodrome Forecast
Issued by NWS

Home | Current Version | Previous Version | Text Only | Print | Product List | Glossary On
Versions: 1 2 3 4 5 6 7 8 9 10 11 12 13 14 15 16 17 18 19 20 21 22
000
FTUS43 KDLH 241722 AAB
TAFHYR
TAF AMD
KHYR 241722Z 2417/2518 20008G17KT P6SM SCT050
     FM250000 18004KT P6SM FEW250
     FM250300 18005KT P6SM VCSH SCT100 WS020/20040KT
     FM250600 19003KT P6SM VCSH SCT050
     FM251200 VRB03KT P6SM OVC020=

USA.gov is the U.S. government's official web portal to all federal, state and local government web resources and services.